createdAt,value
2019-04-29T00:00:02.510Z,73.79
2019-04-29T00:02:33.892Z,73.12
2019-04-29T00:05:02.831Z,74.13
2019-04-29T00:07:31.713Z,74.32
2019-04-29T00:10:00.629Z,74.30
2019-04-29T00:12:29.528Z,73.62
2019-04-29T00:15:26.247Z,74.59
2019-04-29T00:18:07.723Z,74.74
2019-04-29T00:20:45.809Z,74.72
2019-04-29T00:23:14.721Z,74.52
2019-04-29T00:25:43.707Z,74.51
2019-04-29T00:28:12.687Z,74.86
2019-04-29T00:30:41.599Z,73.89
2019-04-29T00:33:10.520Z,74.97
2019-04-29T00:35:39.444Z,75.02
2019-04-29T00:38:39.578Z,75.28
2019-04-29T00:41:27.326Z,75.28
2019-04-29T00:43:58.536Z,75.54
2019-04-29T00:46:27.483Z,75.82
2019-04-29T00:48:56.420Z,75.85
2019-04-29T00:51:25.305Z,75.72
2019-04-29T00:53:56.992Z,75.79
2019-04-29T00:56:25.969Z,75.01
2019-04-29T00:58:54.851Z,75.71
2019-04-29T01:01:24.570Z,75.51
2019-04-29T01:03:53.431Z,75.63
2019-04-29T01:06:22.360Z,75.51
2019-04-29T01:08:51.374Z,75.53
2019-04-29T01:11:20.211Z,75.77
2019-04-29T01:13:49.123Z,75.88
2019-04-29T01:16:18.043Z,75.93
2019-04-29T01:18:46.971Z,75.84
2019-04-29T01:21:15.881Z,75.99
2019-04-29T01:23:44.768Z,76.06
2019-04-29T01:26:35.385Z,75.97
2019-04-29T01:29:04.357Z,76.20
2019-04-29T01:31:33.267Z,75.72
2019-04-29T01:34:11.576Z,75.67
2019-04-29T01:36:42.331Z,76.09
2019-04-29T01:39:11.291Z,75.70
2019-04-29T01:42:17.158Z,75.54
2019-04-29T01:44:46.061Z,75.86
2019-04-29T01:47:14.991Z,75.79
2019-04-29T01:49:43.964Z,76.16
2019-04-29T01:52:12.849Z,76.44
2019-04-29T01:54:41.790Z,76.26
2019-04-29T01:57:10.731Z,75.15
2019-04-29T01:59:39.793Z,75.93
2019-04-29T02:02:08.736Z,75.92
2019-04-29T02:04:37.656Z,75.97
2019-04-29T02:07:06.579Z,74.66
2019-04-29T02:09:38.641Z,75.82
2019-04-29T02:12:07.585Z,75.97
2019-04-29T02:14:36.490Z,75.80
2019-04-29T02:17:05.407Z,75.78
2019-04-29T02:19:34.380Z,75.73
2019-04-29T02:22:12.445Z,75.82
2019-04-29T02:24:43.776Z,75.72
2019-04-29T02:27:12.734Z,74.35
2019-04-29T02:29:41.627Z,75.58
2019-04-29T02:32:10.564Z,75.56
2019-04-29T02:34:39.490Z,75.59
2019-04-29T02:37:08.446Z,75.57
2019-04-29T02:39:59.110Z,75.54
2019-04-29T02:42:45.550Z,75.14
2019-04-29T02:45:20.594Z,75.17
2019-04-29T02:47:49.504Z,74.93
2019-04-29T02:50:18.428Z,74.88
2019-04-29T02:52:47.323Z,74.62
2019-04-29T02:55:18.196Z,74.72
2019-04-29T02:58:05.561Z,74.70
2019-04-29T03:00:59.318Z,74.79
2019-04-29T03:03:46.487Z,75.23
2019-04-29T03:06:15.409Z,75.57
2019-04-29T03:08:44.312Z,75.54
2019-04-29T03:11:13.254Z,75.56
2019-04-29T03:13:42.164Z,75.68
2019-04-29T03:16:11.070Z,75.52
2019-04-29T03:18:43.543Z,75.48
2019-04-29T03:21:17.773Z,75.43
2019-04-29T03:23:46.698Z,75.25
2019-04-29T03:26:15.647Z,75.16
2019-04-29T03:28:44.569Z,74.81
2019-04-29T03:31:13.486Z,74.87
2019-04-29T03:33:42.424Z,74.85
2019-04-29T03:36:11.320Z,75.10
2019-04-29T03:38:40.246Z,75.34
2019-04-29T03:41:09.138Z,75.51
2019-04-29T03:43:38.059Z,75.25
2019-04-29T03:46:06.942Z,75.19
2019-04-29T03:48:35.851Z,75.03
2019-04-29T03:51:04.740Z,75.59
2019-04-29T03:53:33.649Z,75.40
2019-04-29T03:56:02.558Z,75.38
2019-04-29T03:58:31.464Z,75.02
2019-04-29T04:01:09.507Z,74.97
2019-04-29T04:03:48.496Z,74.75
2019-04-29T04:06:28.100Z,74.58
2019-04-29T04:09:18.706Z,74.51
2019-04-29T04:11:47.621Z,74.32
2019-04-29T04:14:16.531Z,74.19
2019-04-29T04:17:20.219Z,74.32
2019-04-29T04:19:45.901Z,74.30
2019-04-29T04:22:14.797Z,75.04
2019-04-29T04:24:43.713Z,75.28
2019-04-29T04:27:12.683Z,75.21
2019-04-29T04:29:41.528Z,75.12
2019-04-29T04:32:10.432Z,74.76
2019-04-29T04:34:39.342Z,74.62
2019-04-29T04:37:08.257Z,74.79
2019-04-29T04:39:37.159Z,74.82
2019-04-29T04:42:06.134Z,74.92
2019-04-29T04:44:50.040Z,75.08
2019-04-29T04:47:19.486Z,75.01
2019-04-29T04:49:48.468Z,74.92
2019-04-29T04:52:17.382Z,73.50
2019-04-29T04:54:46.569Z,74.61
2019-04-29T04:57:15.492Z,74.49
2019-04-29T04:59:44.383Z,73.13
2019-04-29T05:02:13.299Z,74.17
2019-04-29T05:04:42.195Z,74.28
2019-04-29T05:07:11.129Z,74.58
2019-04-29T05:09:40.027Z,74.54
2019-04-29T05:12:08.966Z,73.03
2019-04-29T05:14:37.881Z,74.21
2019-04-29T05:17:06.820Z,74.40
2019-04-29T05:19:35.737Z,74.29
2019-04-29T05:22:04.645Z,74.29
2019-04-29T05:24:33.537Z,74.44
2019-04-29T05:27:02.459Z,74.79
2019-04-29T05:29:31.349Z,74.87
2019-04-29T05:32:00.265Z,74.99
2019-04-29T05:34:29.173Z,75.02
2019-04-29T05:37:13.582Z,75.09
2019-04-29T05:39:42.529Z,75.55
2019-04-29T05:42:16.046Z,75.26
2019-04-29T05:44:49.983Z,75.36
2019-04-29T05:47:25.807Z,75.07
2019-04-29T05:50:16.890Z,74.85
2019-04-29T05:52:51.861Z,75.07
2019-04-29T05:55:20.791Z,74.80
2019-04-29T05:57:49.696Z,73.13
2019-04-29T06:00:22.929Z,71.44
2019-04-29T06:02:47.556Z,70.15
2019-04-29T06:05:16.479Z,68.12
2019-04-29T06:07:45.413Z,65.39
2019-04-29T06:10:18.121Z,66.08
2019-04-29T06:12:44.591Z,66.26
2019-04-29T06:15:12.252Z,66.82
2019-04-29T06:17:44.707Z,66.21
2019-04-29T06:20:13.068Z,67.29
2019-04-29T06:22:41.915Z,67.96
2019-04-29T06:25:08.012Z,68.26
2019-04-29T06:27:36.840Z,62.36
2019-04-29T06:30:06.537Z,58.44
2019-04-29T06:32:35.394Z,58.54
2019-04-29T06:35:04.471Z,58.79
2019-04-29T06:37:33.467Z,61.28
2019-04-29T06:40:02.304Z,62.82
2019-04-29T06:42:33.436Z,61.67
2019-04-29T06:45:00.146Z,60.83
2019-04-29T06:47:29.042Z,61.20
2019-04-29T06:49:57.957Z,61.56
2019-04-29T06:52:26.864Z,62.28
2019-04-29T06:54:55.788Z,60.57
2019-04-29T06:57:27.500Z,57.71
2019-04-29T06:59:56.387Z,53.61
2019-04-29T07:02:25.308Z,48.10
2019-04-29T07:04:54.213Z,44.44
2019-04-29T07:07:23.144Z,41.57
2019-04-29T07:09:52.073Z,38.78
2019-04-29T07:12:21.055Z,35.95
2019-04-29T07:14:50.049Z,35.76
2019-04-29T07:17:18.890Z,32.43
2019-04-29T07:19:47.889Z,31.45
2019-04-29T07:22:20.872Z,32.60
2019-04-29T07:24:45.677Z,30.92
2019-04-29T07:27:14.640Z,29.82
2019-04-29T07:29:43.593Z,29.23
2019-04-29T07:32:12.490Z,29.82
2019-04-29T07:34:41.416Z,27.96
2019-04-29T07:37:10.439Z,27.21
2019-04-29T07:39:39.363Z,26.73
2019-04-29T07:42:08.249Z,26.56
2019-04-29T07:44:48.900Z,25.05
2019-04-29T07:47:15.143Z,23.33
2019-04-29T07:49:47.385Z,23.57
2019-04-29T07:52:14.585Z,23.94
2019-04-29T07:54:41.862Z,22.19
2019-04-29T07:57:12.428Z,23.44
2019-04-29T07:59:39.747Z,21.03
2019-04-29T08:02:08.617Z,22.69
2019-04-29T08:04:40.301Z,22.65
2019-04-29T08:07:06.463Z,23.49
2019-04-29T08:09:35.457Z,21.28
2019-04-29T08:12:04.479Z,20.18
2019-04-29T08:14:33.338Z,21.82
2019-04-29T08:17:02.273Z,21.44
2019-04-29T08:19:31.641Z,22.25
2019-04-29T08:22:00.139Z,22.58
2019-04-29T08:24:29.087Z,23.33
2019-04-29T08:26:58.007Z,24.30
2019-04-29T08:29:30.786Z,25.56
2019-04-29T08:31:57.134Z,26.30
2019-04-29T08:34:24.853Z,26.96
2019-04-29T08:36:53.797Z,28.40
2019-04-29T08:39:25.101Z,27.95
2019-04-29T08:41:51.634Z,30.31
2019-04-29T08:44:36.035Z,29.08
2019-04-29T08:47:23.655Z,28.49
2019-04-29T08:49:48.691Z,30.36
2019-04-29T08:52:17.674Z,32.71
2019-04-29T08:54:46.576Z,32.27
2019-04-29T08:57:15.517Z,32.16
2019-04-29T08:59:44.522Z,32.22
2019-04-29T09:02:13.510Z,30.95
2019-04-29T09:04:53.324Z,29.73
2019-04-29T09:07:12.654Z,27.60
2019-04-29T09:09:40.256Z,26.23
2019-04-29T09:12:09.159Z,24.15
2019-04-29T09:14:38.100Z,24.97
2019-04-29T09:17:19.724Z,26.70
2019-04-29T09:19:39.159Z,30.40
2019-04-29T09:22:05.274Z,31.59
2019-04-29T09:24:34.260Z,34.18
2019-04-29T09:27:09.583Z,33.80
2019-04-29T09:29:37.715Z,35.63
2019-04-29T09:32:06.643Z,34.81
2019-04-29T09:34:35.567Z,35.94
2019-04-29T09:37:04.530Z,35.64
2019-04-29T09:39:43.075Z,32.28
2019-04-29T09:42:24.265Z,31.44
2019-04-29T09:45:10.638Z,28.65
2019-04-29T09:47:39.552Z,27.16
2019-04-29T09:50:08.484Z,25.31
2019-04-29T09:52:37.411Z,25.36
2019-04-29T09:55:06.337Z,22.23
2019-04-29T09:57:35.258Z,21.91
2019-04-29T10:00:08.702Z,20.83
2019-04-29T10:03:09.044Z,21.08
2019-04-29T10:05:43.638Z,20.43
2019-04-29T10:08:12.546Z,22.51
2019-04-29T10:10:41.436Z,23.30
2019-04-29T10:13:10.354Z,22.45
2019-04-29T10:15:50.882Z,18.95
2019-04-29T10:18:24.911Z,20.16
2019-04-29T10:20:59.115Z,20.89
2019-04-29T10:23:28.030Z,21.97
2019-04-29T10:25:56.941Z,21.37
2019-04-29T10:28:25.914Z,18.34
2019-04-29T10:30:54.839Z,19.74
2019-04-29T10:33:23.909Z,20.35
2019-04-29T10:35:52.840Z,19.30
2019-04-29T10:38:21.740Z,17.20
2019-04-29T10:41:21.722Z,20.51
2019-04-29T10:44:09.330Z,18.95
2019-04-29T10:47:09.554Z,19.37
2019-04-29T10:50:00.313Z,16.12
2019-04-29T10:52:29.242Z,19.24
2019-04-29T10:54:58.175Z,19.91
2019-04-29T10:57:29.238Z,20.58
2019-04-29T11:00:01.122Z,19.80
2019-04-29T11:02:37.500Z,19.01
2019-04-29T11:05:30.996Z,16.63
2019-04-29T11:08:04.352Z,20.28
2019-04-29T11:10:32.292Z,18.90
2019-04-29T11:13:01.268Z,21.32
2019-04-29T11:15:32.672Z,22.24
2019-04-29T11:18:03.477Z,22.57
2019-04-29T11:20:29.984Z,22.11
2019-04-29T11:23:21.044Z,22.61
2019-04-29T11:26:02.449Z,22.08
2019-04-29T11:28:31.397Z,21.82
2019-04-29T11:31:00.333Z,22.13
2019-04-29T11:33:52.369Z,22.60
2019-04-29T11:36:23.614Z,22.83
2019-04-29T11:38:52.534Z,23.68
2019-04-29T11:41:21.476Z,22.32
2019-04-29T11:43:50.996Z,24.17
2019-04-29T11:46:21.027Z,24.70
2019-04-29T11:48:48.195Z,22.86
2019-04-29T11:51:24.635Z,22.96
2019-04-29T11:53:53.532Z,23.65
2019-04-29T11:56:22.484Z,25.29
2019-04-29T11:58:57.092Z,26.21
2019-04-29T12:01:59.681Z,24.72
2019-04-29T12:04:38.189Z,25.12
2019-04-29T12:07:07.084Z,25.83
2019-04-29T12:09:35.973Z,26.16
2019-04-29T12:12:07.860Z,26.88
2019-04-29T12:14:52.952Z,26.33
2019-04-29T12:17:29.621Z,27.55
2019-04-29T12:20:00.356Z,28.36
2019-04-29T12:22:30.983Z,29.31
2019-04-29T12:24:58.190Z,30.01
2019-04-29T12:27:29.161Z,30.39
2019-04-29T12:29:59.435Z,31.49
2019-04-29T12:32:48.475Z,30.58
2019-04-29T12:35:51.156Z,32.14
2019-04-29T12:38:20.261Z,31.56
2019-04-29T12:41:02.733Z,31.52
2019-04-29T12:43:54.072Z,32.75
2019-04-29T12:46:37.121Z,32.32
2019-04-29T12:49:08.693Z,33.16
2019-04-29T12:51:34.933Z,34.82
2019-04-29T12:54:03.850Z,33.77
2019-04-29T12:56:34.103Z,33.34
2019-04-29T12:59:03.108Z,33.13
2019-04-29T13:01:54.129Z,32.03
2019-04-29T13:04:36.140Z,33.44
2019-04-29T13:07:12.871Z,32.42
2019-04-29T13:09:43.076Z,32.21
2019-04-29T13:12:19.716Z,32.89
2019-04-29T13:15:01.812Z,33.28
2019-04-29T13:17:30.419Z,34.20
2019-04-29T13:20:07.338Z,34.16
2019-04-29T13:22:32.298Z,33.15
2019-04-29T13:25:01.191Z,33.45
2019-04-29T13:27:30.147Z,33.91
2019-04-29T13:29:59.128Z,33.47
2019-04-29T13:32:29.894Z,32.73
2019-04-29T13:35:00.303Z,32.17
2019-04-29T13:37:26.812Z,32.71
2019-04-29T13:39:55.888Z,33.43
2019-04-29T13:42:24.687Z,33.90
2019-04-29T13:45:06.101Z,34.06
2019-04-29T13:47:50.097Z,35.80
2019-04-29T13:50:38.171Z,34.24
2019-04-29T13:52:50.362Z,35.12
2019-04-29T13:55:45.935Z,34.53
2019-04-29T13:57:49.655Z,34.29
2019-04-29T14:00:37.084Z,34.20
2019-04-29T14:03:11.762Z,34.47
2019-04-29T14:05:41.460Z,33.86
2019-04-29T14:08:07.275Z,34.40
2019-04-29T14:10:36.193Z,33.49
2019-04-29T14:13:11.992Z,34.20
2019-04-29T14:15:38.039Z,34.26
2019-04-29T14:18:06.901Z,34.82
2019-04-29T14:20:31.790Z,34.90
2019-04-29T14:23:00.779Z,35.77
2019-04-29T14:25:29.684Z,36.27
2019-04-29T14:27:58.580Z,36.52
2019-04-29T14:30:38.455Z,36.97
2019-04-29T14:32:57.765Z,37.04
2019-04-29T14:35:36.195Z,35.93
2019-04-29T14:38:05.106Z,36.83
2019-04-29T14:40:31.801Z,37.84
2019-04-29T14:43:28.620Z,37.29
2019-04-29T14:46:15.714Z,37.71
2019-04-29T14:48:42.898Z,38.62
2019-04-29T14:51:10.612Z,37.72
2019-04-29T14:53:39.517Z,37.48
2019-04-29T14:56:08.431Z,36.83
2019-04-29T14:58:37.413Z,36.58
2019-04-29T15:01:28.376Z,37.27
2019-04-29T15:04:16.761Z,37.81
2019-04-29T15:06:30.827Z,38.58
2019-04-29T15:08:59.733Z,39.11
2019-04-29T15:11:32.695Z,39.47
2019-04-29T15:14:23.705Z,40.62
2019-04-29T15:16:50.961Z,40.53
2019-04-29T15:19:37.499Z,40.53
2019-04-29T15:22:08.961Z,41.07
2019-04-29T15:24:37.896Z,41.87
2019-04-29T15:27:06.802Z,42.67
2019-04-29T15:29:35.716Z,41.63
2019-04-29T15:32:04.613Z,41.80
2019-04-29T15:34:33.522Z,41.88
2019-04-29T15:37:02.429Z,41.59
2019-04-29T15:39:31.349Z,41.74
2019-04-29T15:42:01.902Z,42.09
2019-04-29T15:44:29.181Z,41.71
2019-04-29T15:46:58.034Z,42.10
2019-04-29T15:49:27.004Z,42.94
2019-04-29T15:51:55.860Z,42.69
2019-04-29T15:54:26.128Z,43.10
2019-04-29T15:56:53.725Z,43.38
2019-04-29T15:59:22.574Z,44.04
2019-04-29T16:01:51.463Z,43.74
2019-04-29T16:04:27.797Z,43.72
2019-04-29T16:07:27.721Z,43.54
2019-04-29T16:10:20.576Z,43.54
2019-04-29T16:12:50.948Z,44.58
2019-04-29T16:15:15.485Z,44.53
2019-04-29T16:17:44.382Z,45.00
2019-04-29T16:20:13.270Z,44.91
2019-04-29T16:22:42.213Z,45.51
2019-04-29T16:25:12.916Z,45.98
2019-04-29T16:30:08.960Z,46.51
2019-04-29T16:32:40.290Z,46.60
2019-04-29T16:35:09.616Z,47.00
2019-04-29T16:37:38.499Z,47.08
2019-04-29T16:40:07.526Z,46.67
2019-04-29T16:42:54.088Z,46.36
2019-04-29T16:45:25.767Z,46.69
2019-04-29T16:47:54.646Z,47.32
2019-04-29T16:50:23.539Z,48.63
2019-04-29T16:52:52.446Z,49.87
2019-04-29T16:55:21.492Z,51.46
2019-04-29T16:57:50.336Z,51.79
2019-04-29T17:00:22.058Z,52.17
2019-04-29T17:02:50.999Z,52.64
2019-04-29T17:05:19.948Z,53.59
2019-04-29T17:07:48.862Z,53.72
2019-04-29T17:10:39.614Z,54.23
2019-04-29T17:13:08.998Z,54.79
2019-04-29T17:15:37.453Z,55.04
2019-04-29T17:18:06.439Z,55.39
2019-04-29T17:20:35.358Z,56.09
2019-04-29T17:23:04.306Z,56.17
2019-04-29T17:25:33.238Z,56.58
2019-04-29T17:28:24.131Z,57.06
2019-04-29T17:31:11.679Z,57.01
2019-04-29T17:33:49.158Z,57.24
2019-04-29T17:35:15.774Z,46.05
2019-04-29T17:36:09.655Z,57.13
2019-04-29T17:38:38.571Z,57.14
2019-04-29T17:41:07.505Z,57.28
2019-04-29T17:43:52.188Z,57.78
2019-04-29T17:46:43.208Z,57.76
2019-04-29T17:49:16.243Z,57.84
2019-04-29T17:51:45.898Z,58.18
2019-04-29T17:54:15.898Z,58.14
2019-04-29T17:57:24.526Z,57.83
2019-04-29T17:59:56.019Z,57.92
2019-04-29T18:02:42.585Z,58.02
2019-04-29T18:05:52.117Z,58.33
2019-04-29T18:08:27.566Z,58.37
2019-04-29T18:10:59.917Z,58.21
2019-04-29T18:13:26.482Z,58.53
2019-04-29T18:16:01.620Z,58.35
2019-04-29T18:18:30.554Z,58.54
2019-04-29T18:21:15.639Z,58.21
2019-04-29T18:23:56.783Z,58.40
2019-04-29T18:26:44.239Z,58.38
2019-04-29T18:29:10.185Z,58.71
2019-04-29T18:31:39.086Z,58.55
2019-04-29T18:34:07.988Z,59.00
2019-04-29T18:36:36.886Z,59.55
2019-04-29T18:39:06.110Z,59.50
2019-04-29T18:41:35.473Z,60.07
2019-04-29T18:44:05.299Z,59.94
2019-04-29T18:46:35.029Z,59.96
2019-04-29T18:49:03.188Z,60.33
2019-04-29T18:51:30.695Z,59.98
2019-04-29T18:53:59.596Z,60.14
2019-04-29T18:56:32.330Z,60.69
2019-04-29T18:58:57.434Z,60.61
2019-04-29T19:01:28.819Z,60.69
2019-04-29T19:04:17.338Z,61.42
2019-04-29T19:06:43.278Z,61.22
2019-04-29T19:09:20.149Z,61.27
2019-04-29T19:11:41.123Z,61.36
2019-04-29T19:14:10.120Z,61.84
2019-04-29T19:16:39.577Z,61.67
2019-04-29T19:19:07.898Z,61.36
2019-04-29T19:21:36.774Z,62.26
2019-04-29T19:24:05.690Z,62.74
2019-04-29T19:26:35.056Z,62.96
2019-04-29T19:29:06.259Z,62.69
2019-04-29T19:31:36.900Z,62.95
2019-04-29T19:34:01.460Z,63.01
2019-04-29T19:36:30.217Z,62.95
2019-04-29T19:38:59.122Z,62.88
2019-04-29T19:41:28.075Z,62.46
2019-04-29T19:43:56.983Z,62.53
2019-04-29T19:46:36.841Z,62.39
2019-04-29T19:48:59.274Z,62.48
2019-04-29T19:51:25.577Z,62.67
2019-04-29T19:53:52.551Z,62.50
2019-04-29T19:56:24.351Z,61.99
2019-04-29T19:58:50.926Z,62.61
2019-04-29T20:01:29.771Z,62.58
2019-04-29T20:04:01.568Z,62.32
2019-04-29T20:06:30.820Z,62.64
2019-04-29T20:09:02.100Z,62.80
2019-04-29T20:11:32.743Z,62.80
2019-04-29T20:14:04.879Z,63.00
2019-04-29T20:16:43.303Z,63.36
2019-04-29T20:19:27.266Z,63.77
2019-04-29T20:21:55.884Z,63.72
2019-04-29T20:24:23.713Z,63.22
2019-04-29T20:26:51.948Z,62.96
2019-04-29T20:29:20.951Z,63.16
2019-04-29T20:31:53.285Z,63.11
2019-04-29T20:34:23.919Z,63.39
2019-04-29T20:36:47.631Z,63.45
2019-04-29T20:39:23.044Z,63.45
2019-04-29T20:41:48.736Z,63.35
2019-04-29T20:44:16.007Z,63.80
2019-04-29T20:47:00.755Z,63.96
2019-04-29T20:49:12.234Z,63.89
2019-04-29T20:51:51.596Z,63.95
2019-04-29T20:54:18.768Z,64.54
2019-04-29T20:56:42.223Z,64.50
2019-04-29T20:59:12.774Z,64.49
2019-04-29T21:01:43.314Z,64.86
2019-04-29T21:04:09.136Z,65.07
2019-04-29T21:06:47.337Z,64.98
2019-04-29T21:09:07.441Z,64.85
2019-04-29T21:11:58.958Z,65.13
2019-04-29T21:14:34.041Z,65.12
2019-04-29T21:17:02.143Z,65.02
2019-04-29T21:19:29.011Z,64.82
2019-04-29T21:21:57.912Z,64.99
2019-04-29T21:24:26.826Z,65.07
2019-04-29T21:26:57.439Z,64.67
2019-04-29T21:29:25.567Z,64.72
2019-04-29T21:31:58.385Z,64.56
2019-04-29T21:34:22.669Z,64.94
2019-04-29T21:37:01.627Z,65.08
2019-04-29T21:40:07.135Z,64.74
2019-04-29T21:42:47.328Z,64.65
2019-04-29T21:45:17.461Z,64.86
2019-04-29T21:47:51.808Z,65.02
2019-04-29T21:50:15.208Z,65.08
2019-04-29T21:52:42.874Z,65.08
2019-04-29T21:55:11.785Z,65.32
2019-04-29T21:57:40.708Z,65.35
2019-04-29T22:00:09.731Z,65.65
2019-04-29T22:02:41.414Z,65.47
2019-04-29T22:05:09.671Z,65.38
2019-04-29T22:07:39.784Z,65.03
2019-04-29T22:10:05.769Z,64.95
2019-04-29T22:12:34.839Z,65.11
2019-04-29T22:15:05.803Z,65.14
2019-04-29T22:17:35.597Z,65.15
2019-04-29T22:20:04.176Z,65.13
2019-04-29T22:22:35.047Z,65.02
2019-04-29T22:25:05.958Z,65.66
2019-04-29T22:27:28.712Z,65.65
2019-04-29T22:29:57.629Z,66.01
2019-04-29T22:32:26.515Z,65.14
2019-04-29T22:35:00.854Z,65.64
2019-04-29T22:37:25.485Z,65.57
2019-04-29T22:39:53.263Z,65.57
2019-04-29T22:42:29.078Z,65.01
2019-04-29T22:45:00.589Z,65.68
2019-04-29T22:47:26.849Z,65.69
2019-04-29T22:49:58.636Z,65.76
2019-04-29T22:52:25.434Z,66.04
2019-04-29T22:54:57.905Z,65.81
2019-04-29T22:57:22.978Z,65.81
2019-04-29T22:59:54.062Z,65.61
2019-04-29T23:02:25.184Z,65.88
2019-04-29T23:04:53.675Z,66.59
2019-04-29T23:07:22.113Z,66.47
2019-04-29T23:09:47.959Z,66.47
2019-04-29T23:12:18.557Z,66.63
2019-04-29T23:14:45.741Z,66.33
2019-04-29T23:17:15.655Z,66.30
2019-04-29T23:19:46.574Z,66.62
2019-04-29T23:22:34.497Z,66.35
2019-04-29T23:25:10.148Z,66.66
2019-04-29T23:27:39.099Z,66.78
2019-04-29T23:30:08.015Z,66.66
2019-04-29T23:32:39.493Z,66.90
2019-04-29T23:35:09.772Z,66.91
2019-04-29T23:37:35.865Z,66.88
2019-04-29T23:40:05.875Z,67.11
2019-04-29T23:42:34.194Z,67.25
2019-04-29T23:45:05.169Z,67.54
2019-04-29T23:47:32.168Z,67.64
2019-04-29T23:50:01.112Z,67.63
2019-04-29T23:52:30.030Z,67.71
2019-04-29T23:54:58.961Z,67.80
2019-04-29T23:57:49.842Z,68.61
